Latest Coastal Weather Observations for Hamilton Island

IDQ60701

Issued at 11:31 am EST Tuesday 28 July 2015 (issued every 10 minutes, with the page automatically refreshed every 10 minutes)

About coastal observations | Map of coastal stations | Coastal observations for QLD | Marine services | Other Formats
Station Details ID: 033106 Name: HAMILTON ISLAND AIRPORT Lat: -20.37 Lon: 148.95 Height: 58.66 m
Data from the previous 72 hours. | See also: Recent months at Hamilton Island
Date/Time
EST
Temp

°C
Wind Pressure Rain
since 9am
mm
Weather Cloud Vis
km
Sea
Height
m
Swell
Dir
 
Speed
knots
Gust
knots
hPa Trend Height
m
Period
s
Dir
28/11:30am 19.1 SSE 27 32 1025.2 - 0.0 - Cloudy 10 - - - -
28/11:00am 19.5 SSE 30 34 1025.3 - 0.0 - - 10 - - - -
28/10:30am 19.2 SSE 29 34 1025.4 - 0.0 - Partly cloudy 10 - - - -
28/10:00am 19.1 SSE 28 33 1025.4 - 0.0 - Cloudy 10 - - - -
28/09:30am 19.2 SSE 28 32 1025.3 - 0.0 - Partly cloudy 10 - - - -
28/09:00am 19.1 SSE 30 35 1024.8 - 0.2 - Mostly cloudy 10 - - - -
28/08:30am 19.1 SSE 28 32 1024.6 - 0.2 - Partly cloudy 10 - - - -
28/08:00am 19.6 SSE 28 33 1024.2 - 0.2 - Partly cloudy 10 - - - -
28/07:30am 19.6 SSE 25 30 1023.8 - 0.2 - Partly cloudy 10 - - - -
28/07:00am 19.4 SSE 26 33 1023.4 - 0.2 - Partly cloudy 10 - - - -
28/06:45am 19.4 SSE 26 33 1023.3 - 0.2 - Partly cloudy 10 - - - -
28/06:30am 19.5 SSE 28 32 1023.0 - 0.2 - Cloudy 10 - - - -
28/06:00am 19.7 SSE 28 32 1022.5 - 0.2 - Mostly cloudy 10 - - - -
28/05:30am 20.2 SSE 25 30 1022.8 - 0.2 - Cloudy 10 - - - -
28/05:00am 20.3 SSE 25 29 1022.5 - 0.2 - Partly cloudy 10 - - - -
28/04:30am 20.4 SSE 21 24 1022.5 - 0.2 - Partly cloudy 10 - - - -
28/04:00am 20.5 SSE 19 21 1022.5 - 0.2 - Partly cloudy 10 - - - -
28/03:30am 20.5 SSE 17 19 1022.8 - 0.2 - Partly cloudy 10 - - - -
28/03:20am 20.5 SSE 17 19 1022.8 - 0.2 - Partly cloudy 10 - - - -
28/03:06am 20.6 SSE 17 19 1022.8 - 0.2 - Partly cloudy 10 - - - -
28/03:00am 20.6 SSE 17 19 1022.6 - 0.2 - Cloudy 10 - - - -
28/02:30am 20.6 SSE 16 19 1023.0 - 0.2 - Partly cloudy 10 - - - -
28/02:00am 20.6 SSE 16 17 1023.0 - 0.2 - Partly cloudy 10 - - - -
28/01:30am 20.7 SE 15 17 1023.2 - 0.2 - Partly cloudy 10 - - - -
28/01:00am 20.7 SSE 19 21 1023.5 - 0.2 - Partly cloudy 10 - - - -
28/12:30am 20.7 SSE 19 22 1023.4 - 0.2 - Partly cloudy 10 - - - -
28/12:00am 20.8 SSE 16 20 1023.4 - 0.2 - Cloudy 10 - - - -
 
Date/Time
EST
Temp

°C
Wind Pressure Rain
since 9am
mm
Weather Cloud Vis
km
Sea
Height
m
Swell
Dir
 
Speed
knots
Gust
knots
hPa Trend Height
m
Period
s
Dir
27/11:30pm 20.7 SSE 14 17 1023.8 - 0.2 - Partly cloudy 10 - - - -
27/11:00pm 20.8 SSE 11 15 1023.8 - 0.2 - Partly cloudy 10 - - - -
27/10:30pm 20.8 SSE 11 14 1024.0 - 0.2 - Cloudy 10 - - - -
27/10:00pm 20.9 SSE 10 12 1023.7 - 0.2 - Cloudy 10 - - - -
27/09:30pm 21.0 SSE 10 11 1023.6 - 0.2 - Partly cloudy 10 - - - -
27/09:12pm 21.0 SE 9 10 1023.6 - 0.2 - Partly cloudy 10 - - - -
27/09:00pm 20.9 SE 8 9 1023.4 - 0.2 - Partly cloudy 10 - - - -
27/08:51pm 20.9 SE 8 9 1023.5 - 0.2 - Partly cloudy 10 - - - -
27/08:30pm 20.9 SE 8 9 1023.3 - 0.2 - Partly cloudy 10 - - - -
27/08:00pm 21.0 SE 9 10 1023.0 - 0.2 - Partly cloudy 10 - - - -
27/07:30pm 21.2 SE 10 12 1022.7 - 0.2 - Cloudy 10 - - - -
27/07:00pm 21.1 ESE 11 13 1022.4 - 0.2 - Cloudy 10 - - - -
27/06:33pm 21.1 ESE 11 13 1021.9 - 0.2 - Partly cloudy 10 - - - -
27/06:30pm 21.1 ESE 11 13 1021.9 - 0.2 - Partly cloudy 10 - - - -
27/06:00pm 21.1 ESE 9 10 1021.3 - 0.2 - - 10 - - - -
27/05:30pm 21.2 ESE 10 12 1021.2 - 0.2 - - 10 - - - -
27/05:00pm 21.6 ESE 11 13 1020.8 - 0.2 - - 10 - - - -
27/04:30pm 21.8 ESE 13 14 1020.4 - 0.2 - - 10 - - - -
27/04:00pm 22.0 E 11 13 1020.1 - 0.2 - - 10 - - - -
27/03:30pm 22.5 E 13 15 1020.2 - 0.2 - - 10 - - - -
27/03:00pm 22.8 E 11 13 1019.9 - 0.2 - - 10 - - - -
27/02:30pm 22.7 ESE 10 11 1020.4 - 0.2 - - 10 - - - -
27/02:00pm 22.8 ESE 7 8 1020.6 - 0.2 - - 10 - - - -
27/01:30pm 23.5 SSE 8 9 1021.0 - 0.2 - - 10 - - - -
27/01:00pm 23.7 SSE 6 7 1021.3 - 0.2 - - 10 - - - -
27/12:30pm 24.0 SE 5 6 1021.7 - 0.2 - - 10 - - - -
27/12:00pm 23.4 ESE 6 7 1021.9 - 0.2 - - 10 - - - -
27/11:30am 23.7 SSE 7 8 1022.7 - 0.0 - - 10 - - - -
27/11:00am 22.7 SSE 7 9 1023.1 - 0.0 - - 10 - - - -
27/10:30am 22.4 SSE 9 11 1023.4 - 0.0 - Partly cloudy 10 - - - -
27/10:11am 21.6 SSE 11 14 1023.6 - 0.0 - Cloudy 10 - - - -
27/10:00am 21.3 S 10 14 1023.7 - 0.0 - Partly cloudy 10 - - - -
27/09:30am 20.7 S 9 12 1024.0 - 0.0 - Cloudy 10 - - - -
27/09:00am 20.9 S 10 13 1023.6 - 0.0 - Cloudy 10 - - - -
27/08:30am 20.7 S 10 13 1023.6 - 0.0 - Cloudy 10 - - - -
27/08:00am 20.5 S 8 11 1023.2 - 0.0 - Partly cloudy 10 - - - -
27/07:30am 20.0 SW 8 10 1022.7 - 0.0 - Partly cloudy 10 - - - -
27/07:19am 20.1 SW 7 9 1022.7 - 0.0 - Partly cloudy 10 - - - -
27/07:00am 20.0 SSW 7 8 1022.5 - 0.0 - - 10 - - - -
27/06:36am 19.9 SSW 6 7 1022.3 - 0.0 - Partly cloudy 10 - - - -
27/06:30am 19.9 SSW 6 6 1022.2 - 0.0 - Partly cloudy 10 - - - -
27/06:00am 20.1 CALM 0 3 1021.8 - 0.0 - Cloudy 10 - - - -
27/05:30am 20.1 SW 6 7 1021.6 - 0.0 - Cloudy 10 - - - -
27/05:00am 20.1 SW 5 6 1021.4 - 0.0 - Cloudy 10 - - - -
27/04:39am 20.0 SW 4 5 1021.3 - 0.0 - Partly cloudy 10 - - - -
27/04:30am 20.0 SW 4 5 1021.3 - 0.0 - Partly cloudy 10 - - - -
27/04:00am 20.1 S 4 5 1021.4 - 0.0 - Cloudy 10 - - - -
27/03:46am 20.2 S 1 3 1021.5 - 0.0 - Cloudy 10 - - - -
27/03:30am 20.2 SW 2 5 1021.6 - 0.0 - Cloudy 6 - - - -
27/03:28am 20.3 SW 3 6 1021.7 - 0.0 - Cloudy 6 - - - -
27/03:00am 20.3 SSW 4 5 1021.6 - 0.0 - Mostly cloudy 8 - - - -
27/02:30am 20.3 SSE 1 4 1021.9 - 0.0 - Partly cloudy 7 - - - -
27/02:29am 20.3 SSE 1 4 1021.9 - 0.0 - Partly cloudy 7 - - - -
27/02:08am 20.4 CALM 0 3 1022.0 - 0.0 - Cloudy 6 - - - -
27/02:00am 20.4 SE 3 4 1022.0 - 0.0 - Cloudy 9 - - - -
27/01:30am 20.2 CALM 0 0 1022.3 - 0.0 - Cloudy 10 - - - -
27/01:09am 20.2 CALM 0 0 1022.5 - 0.0 - Partly cloudy 7 - - - -
27/01:07am 20.2 CALM 0 0 1022.6 - 0.0 - Partly cloudy 7 - - - -
27/01:00am 20.3 CALM 0 0 1022.6 - 0.0 - Partly cloudy 8 - - - -
27/12:48am 20.4 CALM 0 0 1022.5 - 0.0 - - 3 - - - -
27/12:30am 20.3 SSW 1 4 1022.6 - 0.0 - - 9 - - - -
27/12:00am 20.2 SSW 2 4 1022.6 - 0.0 - - 10 - - - -
 
Date/Time
EST
Temp

°C
Wind Pressure Rain
since 9am
mm
Weather Cloud Vis
km
Sea
Height
m
Swell
Dir
 
Speed
knots
Gust
knots
hPa Trend Height
m
Period
s
Dir
26/11:30pm 20.5 CALM 0 0 1022.9 - 0.0 - - 9 - - - -
26/11:00pm 20.5 CALM 0 0 1023.0 - 0.0 - - 10 - - - -
26/10:30pm 20.5 CALM 0 0 1022.9 - 0.0 - - 10 - - - -
26/10:00pm 20.7 CALM 0 0 1023.1 - 0.0 - - 10 - - - -
26/09:30pm 20.6 CALM 0 0 1023.0 - 0.0 - Partly cloudy 10 - - - -
26/09:00pm 20.7 CALM 0 0 1022.6 - 0.0 - - 10 - - - -
26/08:30pm 20.9 ENE 3 4 1022.3 - 0.0 - - 10 - - - -
26/08:00pm 20.8 ENE 4 6 1022.0 - 0.0 - - 10 - - - -
26/07:30pm 21.0 E 6 7 1021.7 - 0.0 - - 10 - - - -
26/07:00pm 20.8 ESE 4 5 1021.3 - 0.0 - - 10 - - - -
26/06:30pm 20.9 ENE 5 7 1020.6 - 0.0 - - 10 - - - -
26/06:00pm 21.0 E 9 10 1019.9 - 0.0 - - 10 - - - -
26/05:30pm 21.3 E 8 9 1019.7 - 0.0 - Partly cloudy 10 - - - -
26/05:18pm 21.5 E 7 8 1019.7 - 0.0 - Partly cloudy 10 - - - -
26/05:00pm 21.5 E 7 9 1019.4 - 0.0 - Partly cloudy 10 - - - -
26/04:46pm 21.7 E 9 10 1019.1 - 0.0 - Partly cloudy 10 - - - -
26/04:30pm 21.6 E 9 11 1019.1 - 0.0 - - 10 - - - -
26/04:00pm 21.9 SE 6 6 1018.9 - 0.0 - - 10 - - - -
26/03:30pm 22.2 SE 6 6 1018.6 - 0.0 - - 10 - - - -
26/03:00pm 22.2 SE 6 6 1018.6 - 0.0 - Mostly clear 10 - - - -
26/02:30pm 22.4 SE 7 7 1018.8 - 0.0 - Partly cloudy 10 - - - -
26/02:00pm 22.6 SE 8 9 1019.1 - 0.0 - Partly cloudy 10 - - - -
26/01:59pm 22.6 SE 8 9 1019.1 - 0.0 - Partly cloudy 10 - - - -
26/01:42pm 23.0 SE 8 9 1019.2 - 0.0 - Partly cloudy 10 - - - -
26/01:30pm 22.4 SE 8 9 1019.5 - 0.0 - Partly cloudy 10 - - - -
26/01:00pm 21.4 SE 6 7 1019.9 - 0.0 - - 10 - - - -
26/12:31pm 21.0 ESE 6 7 1020.3 - 0.0 - Partly cloudy 10 - - - -
26/12:30pm 20.9 ESE 6 7 1020.3 - 0.0 - Partly cloudy 10 - - - -
26/12:21pm 21.4 ESE 6 7 1020.5 - 0.0 - Partly cloudy 10 - - - -
26/12:00pm 21.8 SSE 8 9 1020.8 - 0.0 - Cloudy 0.8 - - - -
26/11:44am 21.5 SSE 8 9 1021.5 - 0.0 - Partly cloudy 5 - - - -
26/11:30am 21.0 S 9 12 1021.7 - 0.0 - Partly cloudy 9 - - - -
26/11:00am 21.1 S 9 13 1022.1 - 0.0 - Partly cloudy 10 - - - -
26/10:30am 22.1 SSE 9 13 1022.4 - 0.0 - Cloudy 10 - - - -
26/10:00am 21.4 SSE 8 11 1022.7 - 0.0 - Partly cloudy 10 - - - -
26/09:30am 21.2 SSE 9 11 1022.9 - 0.0 - Partly cloudy 10 - - - -
26/09:00am 21.0 SSE 9 11 1022.7 - 0.0 - Cloudy 10 - - - -
26/08:30am 20.7 SSE 8 10 1022.6 - 0.0 - Partly cloudy 10 - - - -
26/08:00am 20.7 SSE 8 10 1022.3 - 0.0 - Partly cloudy 10 - - - -
26/07:30am 20.5 S 7 10 1022.1 - 0.0 - Partly cloudy 10 - - - -
26/07:00am 20.3 SSE 10 12 1021.7 - 0.0 - Partly cloudy 10 - - - -
26/06:30am 20.2 SSE 10 11 1021.5 - 0.0 - Partly cloudy 10 - - - -
26/06:00am 20.2 S 11 14 1021.1 - 0.0 - Cloudy 10 - - - -
26/05:30am 20.2 S 9 11 1021.2 - 0.0 - Partly cloudy 10 - - - -
26/05:00am 20.2 S 10 11 1021.2 - 0.0 - Partly cloudy 9 - - - -
26/04:30am 20.3 SSE 9 11 1021.1 - 0.0 - Cloudy 10 - - - -
26/04:00am 20.3 S 8 11 1021.0 - 0.0 - Cloudy 10 - - - -
26/03:30am 20.1 SSE 8 9 1020.9 - 0.0 - Cloudy 9 - - - -
26/03:00am 20.2 SSE 9 11 1020.8 - 0.0 - Cloudy 9 - - - -
26/02:30am 20.2 S 9 11 1021.5 - 0.0 - Partly cloudy 10 - - - -
26/02:00am 20.2 S 10 13 1021.7 - 0.0 - Partly cloudy 10 - - - -
26/01:30am 20.3 S 9 11 1022.1 - 0.0 - Partly cloudy 10 - - - -
26/01:00am 20.3 S 10 12 1022.4 - 0.0 - Cloudy 10 - - - -
26/12:30am 20.3 S 7 8 1022.5 - 0.0 - Cloudy 10 - - - -
26/12:00am 20.4 S 5 7 1022.4 - 0.0 - Cloudy 10 - - - -
 
Date/Time
EST
Temp

°C
Wind Pressure Rain
since 9am
mm
Weather Cloud Vis
km
Sea
Height
m
Swell
Dir
 
Speed
knots
Gust
knots
hPa Trend Height
m
Period
s
Dir
25/11:30pm 20.6 SSE 7 9 1022.5 - 0.0 - Cloudy 10 - - - -
25/11:00pm 20.4 SSE 9 10 1022.7 - 0.0 - Partly cloudy 10 - - - -
25/10:30pm 20.5 S 8 10 1022.9 - 0.0 - Cloudy 10 - - - -
25/10:00pm 20.7 S 7 9 1022.9 - 0.0 - Partly cloudy 10 - - - -
25/09:30pm 20.8 S 8 10 1022.7 - 0.0 - Cloudy 10 - - - -
25/09:00pm 21.2 SSE 9 11 1022.3 - 0.0 - Mostly cloudy 10 - - - -
25/08:30pm 21.0 SSE 8 9 1022.2 - 0.0 - Partly cloudy 10 - - - -
25/08:00pm 21.1 SSE 8 9 1022.0 - 0.0 - Partly cloudy 10 - - - -
25/07:30pm 20.8 SE 8 9 1021.6 - 0.0 - Partly cloudy 10 - - - -
25/07:00pm 20.9 SE 7 9 1021.2 - 0.0 - Cloudy 10 - - - -
25/06:30pm 21.0 SE 6 6 1020.8 - 0.0 - Partly cloudy 10 - - - -
25/06:04pm 21.1 SSE 6 7 1020.6 - 0.0 - Partly cloudy 10 - - - -
25/06:00pm 21.1 SSE 6 7 1020.4 - 0.0 - Mostly clear 10 - - - -
25/05:32pm 21.0 SE 6 6 1020.2 - 0.0 - Partly cloudy 10 - - - -
25/05:30pm 21.0 SE 6 7 1020.2 - 0.0 - Partly cloudy 10 - - - -
25/05:00pm 21.3 SSE 7 9 1019.9 - 0.0 - Partly cloudy 10 - - - -
25/04:30pm 21.7 SSE 8 10 1019.8 - 0.0 - Partly cloudy 10 - - - -
25/04:15pm 21.9 SSE 9 11 1019.8 - 0.0 - Partly cloudy 10 - - - -
25/04:00pm 22.1 SSE 7 8 1019.8 - 0.0 - Partly cloudy 10 - - - -
25/03:53pm 22.2 SE 7 8 1019.7 - 0.0 - Partly cloudy 10 - - - -
25/03:30pm 22.4 SE 8 9 1019.6 - 0.0 - Partly cloudy 10 - - - -
25/03:00pm 22.6 SE 9 10 1019.4 - 0.0 - Cloudy 10 - - - -
25/02:30pm 22.5 SE 10 11 1019.6 - 0.0 - Partly cloudy 10 - - - -
25/02:00pm 22.5 SE 9 10 1019.7 - 0.0 - Partly cloudy 10 - - - -
25/01:30pm 22.6 SE 8 9 1019.8 - 0.0 - Partly cloudy 10 - - - -
25/01:25pm 22.5 SE 8 9 1019.9 - 0.0 - Partly cloudy 10 - - - -
25/01:00pm 22.7 SE 7 9 1020.1 - 0.0 - Partly cloudy 10 - - - -
25/12:46pm 22.9 SE 7 8 1020.4 - 0.0 - Partly cloudy 10 - - - -
25/12:30pm 22.3 SSE 8 11 1020.7 - 0.0 - Partly cloudy 10 - - - -
25/12:00pm 22.0 SSE 8 11 1020.9 - 0.0 - Cloudy 10 - - - -

Other Formats:

Comma delimited format used in spreadsheet applications
http://www.bom.gov.au/fwo/IDQ60701/IDQ60701.94368.axf

JavaScript Object Notation format (JSON) in row-major order
http://www.bom.gov.au/fwo/IDQ60701/IDQ60701.94368.json